sensor_id;sensor_type;location;lat;lon;timestamp;pressure;altitude;pressure_sealevel;temperature;humidity
6032;BME280;3044;43.232;27.972;2023-04-05T00:02:22;44207.53;;;-143.84;99.63
6032;BME280;3044;43.232;27.972;2023-04-05T00:04:54;44211.34;;;-143.84;99.63
6032;BME280;3044;43.232;27.972;2023-04-05T00:07:23;44211.34;;;-143.84;99.69
6032;BME280;3044;43.232;27.972;2023-04-05T00:09:51;44211.34;;;-143.84;99.78
6032;BME280;3044;43.232;27.972;2023-04-05T00:12:20;44211.34;;;-143.84;100.00
6032;BME280;3044;43.232;27.972;2023-04-05T00:14:47;44198.00;;;-143.84;99.86
6032;BME280;3044;43.232;27.972;2023-04-05T00:17:14;44205.63;;;-143.84;100.00
6032;BME280;3044;43.232;27.972;2023-04-05T00:19:42;44226.56;;;-143.84;100.00
6032;BME280;3044;43.232;27.972;2023-04-05T00:22:09;44234.19;;;-143.84;100.00
6032;BME280;3044;43.232;27.972;2023-04-05T00:24:37;44238.00;;;-143.84;100.00
6032;BME280;3044;43.232;27.972;2023-04-05T00:27:06;44228.47;;;-143.84;100.00
6032;BME280;3044;43.232;27.972;2023-04-05T00:29:35;44218.94;;;-143.84;99.92
6032;BME280;3044;43.232;27.972;2023-04-05T00:32:03;44224.66;;;-143.84;100.00
6032;BME280;3044;43.232;27.972;2023-04-05T00:34:30;44217.06;;;-143.84;99.95
6032;BME280;3044;43.232;27.972;2023-04-05T00:36:58;44205.63;;;-143.84;99.57
6032;BME280;3044;43.232;27.972;2023-04-05T00:39:26;44199.91;;;-143.84;99.94
6032;BME280;3044;43.232;27.972;2023-04-05T00:41:53;44217.06;;;-143.84;100.00
6032;BME280;3044;43.232;27.972;2023-04-05T00:44:20;44211.34;;;-143.84;99.85
6032;BME280;3044;43.232;27.972;2023-04-05T00:46:49;44226.56;;;-143.84;99.74
6032;BME280;3044;43.232;27.972;2023-04-05T00:49:16;44230.38;;;-143.84;100.00
6032;BME280;3044;43.232;27.972;2023-04-05T00:51:44;44228.47;;;-143.84;100.00
6032;BME280;3044;43.232;27.972;2023-04-05T00:54:12;44238.00;;;-143.84;100.00
6032;BME280;3044;43.232;27.972;2023-04-05T00:56:40;44243.69;;;-143.84;100.00
6032;BME280;3044;43.232;27.972;2023-04-05T00:59:07;44245.59;;;-143.84;100.00
6032;BME280;3044;43.232;27.972;2023-04-05T01:01:35;44253.22;;;-143.84;100.00
6032;BME280;3044;43.232;27.972;2023-04-05T01:04:08;44247.50;;;-143.84;100.00
6032;BME280;3044;43.232;27.972;2023-04-05T01:06:57;44251.31;;;-143.84;100.00
6032;BME280;3044;43.232;27.972;2023-04-05T01:09:40;44251.31;;;-143.84;100.00
6032;BME280;3044;43.232;27.972;2023-04-05T01:12:11;44255.13;;;-143.84;100.00
6032;BME280;3044;43.232;27.972;2023-04-05T01:14:44;44262.75;;;-143.84;100.00
6032;BME280;3044;43.232;27.972;2023-04-05T01:17:11;44272.25;;;-143.84;100.00
6032;BME280;3044;43.232;27.972;2023-04-05T01:19:39;44277.97;;;-143.84;100.00
6032;BME280;3044;43.232;27.972;2023-04-05T01:25:48;44274.16;;;-143.84;100.00
6032;BME280;3044;43.232;27.972;2023-04-05T01:28:26;44287.50;;;-143.84;100.00
6032;BME280;3044;43.232;27.972;2023-04-05T01:31:05;44279.88;;;-143.84;100.00
6032;BME280;3044;43.232;27.972;2023-04-05T01:33:38;44272.25;;;-143.84;100.00
6032;BME280;3044;43.232;27.972;2023-04-05T01:36:16;44270.34;;;-143.84;100.00
6032;BME280;3044;43.232;27.972;2023-04-05T01:38:48;44270.34;;;-143.84;100.00
6032;BME280;3044;43.232;27.972;2023-04-05T01:41:16;44262.75;;;-143.84;100.00
6032;BME280;3044;43.232;27.972;2023-04-05T01:43:43;44260.84;;;-143.84;100.00
6032;BME280;3044;43.232;27.972;2023-04-05T01:46:12;44270.34;;;-143.84;100.00
6032;BME280;3044;43.232;27.972;2023-04-05T01:48:39;44264.66;;;-143.84;100.00
6032;BME280;3044;43.232;27.972;2023-04-05T01:51:06;44262.75;;;-143.84;100.00
6032;BME280;3044;43.232;27.972;2023-04-05T01:53:33;44274.16;;;-143.84;100.00
6032;BME280;3044;43.232;27.972;2023-04-05T01:56:01;44291.28;;;-143.84;100.00
6032;BME280;3044;43.232;27.972;2023-04-05T01:58:28;44270.34;;;-143.84;100.00
6032;BME280;3044;43.232;27.972;2023-04-05T02:00:56;44260.84;;;-143.84;100.00
6032;BME280;3044;43.232;27.972;2023-04-05T02:03:24;44268.44;;;-143.84;100.00
6032;BME280;3044;43.232;27.972;2023-04-05T02:05:52;44264.66;;;-143.84;100.00
6032;BME280;3044;43.232;27.972;2023-04-05T02:08:19;44279.88;;;-143.84;100.00
6032;BME280;3044;43.232;27.972;2023-04-05T02:10:46;44289.41;;;-143.84;100.00
6032;BME280;3044;43.232;27.972;2023-04-05T02:13:13;44291.28;;;-143.84;100.00
6032;BME280;3044;43.232;27.972;2023-04-05T02:15:46;44297.00;;;-143.84;100.00
6032;BME280;3044;43.232;27.972;2023-04-05T02:18:13;44293.19;;;-143.84;100.00
6032;BME280;3044;43.232;27.972;2023-04-05T02:20:42;44287.50;;;-143.84;100.00
6032;BME280;3044;43.232;27.972;2023-04-05T02:23:09;44287.50;;;-143.84;100.00
6032;BME280;3044;43.232;27.972;2023-04-05T02:25:36;44276.06;;;-143.84;100.00
6032;BME280;3044;43.232;27.972;2023-04-05T02:28:03;44268.44;;;-143.84;100.00
6032;BME280;3044;43.232;27.972;2023-04-05T02:30:31;44258.94;;;-143.84;100.00
6032;BME280;3044;43.232;27.972;2023-04-05T02:32:58;44257.03;;;-143.84;100.00
6032;BME280;3044;43.232;27.972;2023-04-05T02:35:26;44260.84;;;-143.84;99.94
6032;BME280;3044;43.232;27.972;2023-04-05T02:37:55;44255.13;;;-143.84;100.00
6032;BME280;3044;43.232;27.972;2023-04-05T02:40:22;44251.31;;;-143.84;100.00
6032;BME280;3044;43.232;27.972;2023-04-05T02:42:49;44239.91;;;-143.84;100.00
6032;BME280;3044;43.232;27.972;2023-04-05T02:45:17;44232.28;;;-143.84;100.00
6032;BME280;3044;43.232;27.972;2023-04-05T02:47:44;44224.66;;;-143.84;99.98
6032;BME280;3044;43.232;27.972;2023-04-05T02:50:11;44226.56;;;-143.84;100.00
6032;BME280;3044;43.232;27.972;2023-04-05T02:52:38;44232.28;;;-143.84;100.00
6032;BME280;3044;43.232;27.972;2023-04-05T02:55:07;44236.09;;;-143.84;100.00
6032;BME280;3044;43.232;27.972;2023-04-05T02:57:34;44232.28;;;-143.84;100.00
6032;BME280;3044;43.232;27.972;2023-04-05T03:00:02;44236.09;;;-143.84;100.00
6032;BME280;3044;43.232;27.972;2023-04-05T03:02:30;44238.00;;;-143.84;100.00
6032;BME280;3044;43.232;27.972;2023-04-05T03:04:57;44239.91;;;-143.84;99.71
6032;BME280;3044;43.232;27.972;2023-04-05T03:07:26;44234.19;;;-143.84;100.00
6032;BME280;3044;43.232;27.972;2023-04-05T03:09:54;44226.56;;;-143.84;99.63
6032;BME280;3044;43.232;27.972;2023-04-05T03:12:22;44232.28;;;-143.84;99.66
6032;BME280;3044;43.232;27.972;2023-04-05T03:14:50;44228.47;;;-143.84;99.82
6032;BME280;3044;43.232;27.972;2023-04-05T03:17:17;44230.38;;;-143.84;100.00
6032;BME280;3044;43.232;27.972;2023-04-05T03:19:44;44226.56;;;-143.84;100.00
6032;BME280;3044;43.232;27.972;2023-04-05T03:22:11;44224.66;;;-143.84;100.00
6032;BME280;3044;43.232;27.972;2023-04-05T03:24:38;44234.19;;;-143.84;100.00
6032;BME280;3044;43.232;27.972;2023-04-05T03:27:07;44218.94;;;-143.84;99.56
6032;BME280;3044;43.232;27.972;2023-04-05T03:29:36;44205.63;;;-143.84;99.43
6032;BME280;3044;43.232;27.972;2023-04-05T03:32:03;44224.66;;;-143.84;99.73
6032;BME280;3044;43.232;27.972;2023-04-05T03:34:30;44228.47;;;-143.84;99.83
6032;BME280;3044;43.232;27.972;2023-04-05T03:36:57;44230.38;;;-143.84;100.00
6032;BME280;3044;43.232;27.972;2023-04-05T03:39:24;44232.28;;;-143.84;100.00
6032;BME280;3044;43.232;27.972;2023-04-05T03:41:52;44226.56;;;-143.84;100.00
6032;BME280;3044;43.232;27.972;2023-04-05T03:44:19;44234.19;;;-143.84;100.00
6032;BME280;3044;43.232;27.972;2023-04-05T03:46:47;44234.19;;;-143.84;100.00
6032;BME280;3044;43.232;27.972;2023-04-05T03:49:14;44230.38;;;-143.84;100.00
6032;BME280;3044;43.232;27.972;2023-04-05T03:51:42;44224.66;;;-143.84;100.00
6032;BME280;3044;43.232;27.972;2023-04-05T03:54:09;44224.66;;;-143.84;99.68
6032;BME280;3044;43.232;27.972;2023-04-05T03:56:36;44226.56;;;-143.84;100.00
6032;BME280;3044;43.232;27.972;2023-04-05T03:59:03;44232.28;;;-143.84;99.86
6032;BME280;3044;43.232;27.972;2023-04-05T04:01:31;44234.19;;;-143.84;99.83
6032;BME280;3044;43.232;27.972;2023-04-05T04:03:59;44245.59;;;-143.84;100.00
6032;BME280;3044;43.232;27.972;2023-04-05T04:06:27;44236.09;;;-143.84;100.00
6032;BME280;3044;43.232;27.972;2023-04-05T04:08:55;44224.66;;;-143.84;99.72
6032;BME280;3044;43.232;27.972;2023-04-05T04:11:23;44226.56;;;-143.84;99.78
6032;BME280;3044;43.232;27.972;2023-04-05T04:13:50;44224.66;;;-143.84;99.89
6032;BME280;3044;43.232;27.972;2023-04-05T04:16:17;44224.66;;;-143.84;99.89
6032;BME280;3044;43.232;27.972;2023-04-05T04:18:45;44226.56;;;-143.84;99.44
6032;BME280;3044;43.232;27.972;2023-04-05T04:21:13;44215.16;;;-143.84;99.21
6032;BME280;3044;43.232;27.972;2023-04-05T04:23:41;44215.16;;;-143.84;99.45
6032;BME280;3044;43.232;27.972;2023-04-05T04:26:10;44220.84;;;-143.84;99.71
6032;BME280;3044;43.232;27.972;2023-04-05T04:28:38;44239.91;;;-143.84;99.58
6032;BME280;3044;43.232;27.972;2023-04-05T04:31:11;44228.47;;;-143.84;99.78
6032;BME280;3044;43.232;27.972;2023-04-05T04:33:38;44230.38;;;-143.84;99.97
6032;BME280;3044;43.232;27.972;2023-04-05T04:36:08;44232.28;;;-143.84;100.00
6032;BME280;3044;43.232;27.972;2023-04-05T04:38:40;44238.00;;;-143.84;99.88
6032;BME280;3044;43.232;27.972;2023-04-05T04:41:09;44238.00;;;-143.84;100.00
6032;BME280;3044;43.232;27.972;2023-04-05T04:43:37;44239.91;;;-143.84;99.83
6032;BME280;3044;43.232;27.972;2023-04-05T04:46:08;44251.31;;;-143.84;99.77
6032;BME280;3044;43.232;27.972;2023-04-05T04:48:40;44249.41;;;-143.84;100.00
6032;BME280;3044;43.232;27.972;2023-04-05T04:51:08;44241.81;;;-143.84;100.00
6032;BME280;3044;43.232;27.972;2023-04-05T04:53:35;44260.84;;;-143.84;99.97
6032;BME280;3044;43.232;27.972;2023-04-05T04:56:07;44264.66;;;-143.84;100.00
6032;BME280;3044;43.232;27.972;2023-04-05T04:58:34;44264.66;;;-143.84;100.00
6032;BME280;3044;43.232;27.972;2023-04-05T05:01:06;44268.44;;;-143.84;100.00
6032;BME280;3044;43.232;27.972;2023-04-05T05:03:34;44260.84;;;-143.84;100.00
6032;BME280;3044;43.232;27.972;2023-04-05T05:06:02;44272.25;;;-143.84;100.00
6032;BME280;3044;43.232;27.972;2023-04-05T05:08:29;44276.06;;;-143.84;100.00
6032;BME280;3044;43.232;27.972;2023-04-05T05:10:56;44276.06;;;-143.84;100.00
6032;BME280;3044;43.232;27.972;2023-04-05T05:13:25;44270.34;;;-143.84;100.00
6032;BME280;3044;43.232;27.972;2023-04-05T05:15:52;44274.16;;;-143.84;100.00
6032;BME280;3044;43.232;27.972;2023-04-05T05:18:19;44283.69;;;-143.84;100.00
6032;BME280;3044;43.232;27.972;2023-04-05T05:20:49;44293.19;;;-143.84;100.00
6032;BME280;3044;43.232;27.972;2023-04-05T05:23:17;44289.41;;;-143.84;100.00
6032;BME280;3044;43.232;27.972;2023-04-05T05:25:45;44283.69;;;-143.84;100.00
6032;BME280;3044;43.232;27.972;2023-04-05T05:28:13;44285.59;;;-143.84;100.00
6032;BME280;3044;43.232;27.972;2023-04-05T05:30:42;44281.78;;;-143.84;100.00
6032;BME280;3044;43.232;27.972;2023-04-05T05:33:09;44289.41;;;-143.84;100.00
6032;BME280;3044;43.232;27.972;2023-04-05T05:35:36;44276.06;;;-143.84;100.00
6032;BME280;3044;43.232;27.972;2023-04-05T05:38:04;44274.16;;;-143.84;100.00
6032;BME280;3044;43.232;27.972;2023-04-05T05:40:31;44264.66;;;-143.84;100.00
6032;BME280;3044;43.232;27.972;2023-04-05T05:42:58;44264.66;;;-143.84;99.89
6032;BME280;3044;43.232;27.972;2023-04-05T05:45:25;44274.16;;;-143.84;100.00
6032;BME280;3044;43.232;27.972;2023-04-05T05:47:55;44272.25;;;-143.84;100.00
6032;BME280;3044;43.232;27.972;2023-04-05T05:50:22;44277.97;;;-143.84;100.00
6032;BME280;3044;43.232;27.972;2023-04-05T05:52:49;44257.03;;;-143.84;100.00
6032;BME280;3044;43.232;27.972;2023-04-05T05:55:16;44262.75;;;-143.84;100.00
6032;BME280;3044;43.232;27.972;2023-04-05T05:57:43;44264.66;;;-143.84;100.00
6032;BME280;3044;43.232;27.972;2023-04-05T06:00:11;44262.75;;;-143.84;99.79
6032;BME280;3044;43.232;27.972;2023-04-05T06:02:39;44266.53;;;-143.84;100.00
6032;BME280;3044;43.232;27.972;2023-04-05T06:05:08;44257.03;;;-143.84;99.90
6032;BME280;3044;43.232;27.972;2023-04-05T06:07:35;44241.81;;;-143.84;100.00
6032;BME280;3044;43.232;27.972;2023-04-05T06:10:03;44236.09;;;-143.84;99.82
6032;BME280;3044;43.232;27.972;2023-04-05T06:12:31;44241.81;;;-143.84;99.91
6032;BME280;3044;43.232;27.972;2023-04-05T06:14:59;44239.91;;;-143.84;99.75
6032;BME280;3044;43.232;27.972;2023-04-05T06:17:26;44241.81;;;-143.84;99.52
6032;BME280;3044;43.232;27.972;2023-04-05T06:19:53;44220.84;;;-143.84;99.16
6032;BME280;3044;43.232;27.972;2023-04-05T06:22:21;44207.53;;;-143.84;99.48
6032;BME280;3044;43.232;27.972;2023-04-05T06:24:49;44194.22;;;-143.84;99.28
6032;BME280;3044;43.232;27.972;2023-04-05T06:27:16;44173.25;;;-143.84;98.41
6032;BME280;3044;43.232;27.972;2023-04-05T06:29:43;44175.16;;;-143.84;98.25
6032;BME280;3044;43.232;27.972;2023-04-05T06:32:10;44152.31;;;-143.84;98.46
6032;BME280;3044;43.232;27.972;2023-04-05T06:34:38;44148.53;;;-143.84;97.92
6032;BME280;3044;43.232;27.972;2023-04-05T06:37:05;44133.28;;;-143.84;98.01
6032;BME280;3044;43.232;27.972;2023-04-05T06:39:33;44131.38;;;-143.84;97.61
6032;BME280;3044;43.232;27.972;2023-04-05T06:42:01;44112.34;;;-143.84;96.90
6032;BME280;3044;43.232;27.972;2023-04-05T06:44:28;44119.97;;;-143.84;96.84
6032;BME280;3044;43.232;27.972;2023-04-05T06:46:55;44116.16;;;-143.84;96.82
6032;BME280;3044;43.232;27.972;2023-04-05T06:49:22;44106.63;;;-143.84;96.76
6032;BME280;3044;43.232;27.972;2023-04-05T06:51:49;44095.22;;;-143.84;96.36
6032;BME280;3044;43.232;27.972;2023-04-05T06:54:17;44066.66;;;-143.84;95.45
6032;BME280;3044;43.232;27.972;2023-04-05T06:56:47;44068.56;;;-143.84;95.42
6032;BME280;3044;43.232;27.972;2023-04-05T06:59:14;44074.28;;;-143.84;95.53
6032;BME280;3044;43.232;27.972;2023-04-05T07:01:41;44045.72;;;-143.84;94.91
6032;BME280;3044;43.232;27.972;2023-04-05T07:04:09;44030.50;;;-143.84;93.72
6032;BME280;3044;43.232;27.972;2023-04-05T07:06:36;44034.31;;;-143.84;94.00
6032;BME280;3044;43.232;27.972;2023-04-05T07:09:03;44026.69;;;-143.84;94.42
6032;BME280;3044;43.232;27.972;2023-04-05T07:11:30;44007.66;;;-143.84;93.04
6032;BME280;3044;43.232;27.972;2023-04-05T07:13:59;44005.75;;;-143.84;92.83
6032;BME280;3044;43.232;27.972;2023-04-05T07:16:27;44005.75;;;-143.84;93.20
6032;BME280;3044;43.232;27.972;2023-04-05T07:18:55;44011.47;;;-143.84;92.93
6032;BME280;3044;43.232;27.972;2023-04-05T07:21:22;43996.22;;;-143.84;92.59
6032;BME280;3044;43.232;27.972;2023-04-05T07:23:49;43984.81;;;-143.84;92.20
6032;BME280;3044;43.232;27.972;2023-04-05T07:26:18;43942.94;;;-143.84;91.61
6032;BME280;3044;43.232;27.972;2023-04-05T07:28:47;43979.09;;;-143.84;91.75
6032;BME280;3044;43.232;27.972;2023-04-05T07:31:15;43929.59;;;-143.84;90.75
6032;BME280;3044;43.232;27.972;2023-04-05T07:33:42;43922.00;;;-143.84;90.23
6032;BME280;3044;43.232;27.972;2023-04-05T07:36:09;43929.59;;;-143.84;90.07
6032;BME280;3044;43.232;27.972;2023-04-05T07:38:36;43906.75;;;-143.84;90.18
6032;BME280;3044;43.232;27.972;2023-04-05T07:41:04;43908.66;;;-143.84;90.13
6032;BME280;3044;43.232;27.972;2023-04-05T07:43:31;43922.00;;;-143.84;89.50
6032;BME280;3044;43.232;27.972;2023-04-05T07:46:01;43887.72;;;-143.84;88.63
6032;BME280;3044;43.232;27.972;2023-04-05T07:48:30;43883.91;;;-143.84;88.12
6032;BME280;3044;43.232;27.972;2023-04-05T07:51:02;43853.47;;;-143.84;88.01
6032;BME280;3044;43.232;27.972;2023-04-05T07:53:29;43878.22;;;-143.84;87.03
6032;BME280;3044;43.232;27.972;2023-04-05T07:55:56;43857.28;;;-143.84;87.29
6032;BME280;3044;43.232;27.972;2023-04-05T07:58:24;43853.47;;;-143.84;87.35
6032;BME280;3044;43.232;27.972;2023-04-05T08:00:58;43929.59;;;-143.84;86.68
6032;BME280;3044;43.232;27.972;2023-04-05T08:03:25;44019.06;;;-143.84;85.48
6032;BME280;3044;43.232;27.972;2023-04-05T08:05:54;44015.25;;;-143.84;85.74
6032;BME280;3044;43.232;27.972;2023-04-05T08:08:23;43931.50;;;-143.84;86.64
6032;BME280;3044;43.232;27.972;2023-04-05T08:10:50;43851.56;;;-143.84;87.28
6032;BME280;3044;43.232;27.972;2023-04-05T08:13:17;43880.13;;;-143.84;86.85
6032;BME280;3044;43.232;27.972;2023-04-05T08:15:44;44186.59;;;-143.84;84.97
6032;BME280;3044;43.232;27.972;2023-04-05T08:18:12;44017.16;;;-143.84;85.54
6032;BME280;3044;43.232;27.972;2023-04-05T08:20:39;43937.22;;;-143.84;85.85
6032;BME280;3044;43.232;27.972;2023-04-05T08:23:07;43927.69;;;-143.84;85.60
6032;BME280;3044;43.232;27.972;2023-04-05T08:25:34;44435.97;;;-143.84;83.98
6032;BME280;3044;43.232;27.972;2023-04-05T08:28:02;44784.41;;;-143.84;83.24
6032;BME280;3044;43.232;27.972;2023-04-05T08:30:30;44508.31;;;-143.84;84.35
6032;BME280;3044;43.232;27.972;2023-04-05T08:32:57;44289.41;;;-143.84;84.66
6032;BME280;3044;43.232;27.972;2023-04-05T08:35:24;44557.84;;;-143.84;83.46
6032;BME280;3044;43.232;27.972;2023-04-05T08:37:51;44584.47;;;-143.84;83.52
6032;BME280;3044;43.232;27.972;2023-04-05T08:40:20;44706.34;;;-143.84;83.31
6032;BME280;3044;43.232;27.972;2023-04-05T08:42:56;44971.00;;;-143.84;81.75
6032;BME280;3044;43.232;27.972;2023-04-05T08:45:31;44725.38;;;-143.84;83.01
6032;BME280;3044;43.232;27.972;2023-04-05T08:48:00;44812.97;;;-143.84;82.31
6032;BME280;3044;43.232;27.972;2023-04-05T08:50:27;44910.06;;;-143.84;81.55
6032;BME280;3044;43.232;27.972;2023-04-05T08:52:54;44832.00;;;-143.84;82.44
6032;BME280;3044;43.232;27.972;2023-04-05T08:55:23;44854.84;;;-143.84;82.35
6032;BME280;3044;43.232;27.972;2023-04-05T08:57:53;44713.94;;;-143.84;82.72
6032;BME280;3044;43.232;27.972;2023-04-05T09:00:24;44881.50;;;-143.84;82.08
6032;BME280;3044;43.232;27.972;2023-04-05T09:02:55;45005.28;;;-143.84;80.60
6032;BME280;3044;43.232;27.972;2023-04-05T09:05:23;44908.16;;;-143.84;81.55
6032;BME280;3044;43.232;27.972;2023-04-05T09:07:50;44999.56;;;-143.84;81.15
6032;BME280;3044;43.232;27.972;2023-04-05T09:10:18;44908.16;;;-143.84;81.84
6032;BME280;3044;43.232;27.972;2023-04-05T09:12:49;44950.06;;;-143.84;81.54
6032;BME280;3044;43.232;27.972;2023-04-05T09:15:17;44940.53;;;-143.84;81.33
6032;BME280;3044;43.232;27.972;2023-04-05T09:17:49;44725.38;;;-143.84;83.04
6032;BME280;3044;43.232;27.972;2023-04-05T09:20:17;44740.59;;;-143.84;82.33
6032;BME280;3044;43.232;27.972;2023-04-05T09:22:44;44925.31;;;-143.84;81.55
6032;BME280;3044;43.232;27.972;2023-04-05T09:25:12;44713.94;;;-143.84;82.24
6032;BME280;3044;43.232;27.972;2023-04-05T09:28:00;44873.88;;;-143.84;81.58
6032;BME280;3044;43.232;27.972;2023-04-05T09:30:28;44929.09;;;-143.84;81.27
6032;BME280;3044;43.232;27.972;2023-04-05T09:32:55;44851.03;;;-143.84;82.12
6032;BME280;3044;43.232;27.972;2023-04-05T09:35:24;44856.75;;;-143.84;81.80
6032;BME280;3044;43.232;27.972;2023-04-05T09:37:54;44790.13;;;-143.84;82.46
6032;BME280;3044;43.232;27.972;2023-04-05T09:40:22;44972.91;;;-143.84;80.67
6032;BME280;3044;43.232;27.972;2023-04-05T09:42:50;44896.75;;;-143.84;81.67
6032;BME280;3044;43.232;27.972;2023-04-05T09:45:20;44816.78;;;-143.84;82.18
6032;BME280;3044;43.232;27.972;2023-04-05T09:47:54;44953.88;;;-143.84;81.25
6032;BME280;3044;43.232;27.972;2023-04-05T09:50:22;45064.31;;;-143.84;80.05
6032;BME280;3044;43.232;27.972;2023-04-05T09:52:49;45056.69;;;-143.84;79.20
6032;BME280;3044;43.232;27.972;2023-04-05T09:55:25;45121.44;;;-143.84;78.31
6032;BME280;3044;43.232;27.972;2023-04-05T09:57:53;45150.00;;;-143.84;78.09
6032;BME280;3044;43.232;27.972;2023-04-05T10:00:22;45121.44;;;-143.84;77.74
6032;BME280;3044;43.232;27.972;2023-04-05T10:02:52;45117.63;;;-143.84;78.36
6032;BME280;3044;43.232;27.972;2023-04-05T10:05:22;45140.47;;;-143.84;77.13
6032;BME280;3044;43.232;27.972;2023-04-05T10:07:50;45060.50;;;-143.84;78.93
6032;BME280;3044;43.232;27.972;2023-04-05T10:10:18;45123.34;;;-143.84;78.49
6032;BME280;3044;43.232;27.972;2023-04-05T10:12:48;45144.28;;;-143.84;77.10
6032;BME280;3044;43.232;27.972;2023-04-05T10:15:16;45155.69;;;-143.84;77.27
6032;BME280;3044;43.232;27.972;2023-04-05T10:17:51;45170.94;;;-143.84;76.19
6032;BME280;3044;43.232;27.972;2023-04-05T10:20:21;45174.75;;;-143.84;75.13
6032;BME280;3044;43.232;27.972;2023-04-05T10:23:00;45188.06;;;-143.84;74.25
6032;BME280;3044;43.232;27.972;2023-04-05T10:25:43;45191.88;;;-143.84;74.64
6032;BME280;3044;43.232;27.972;2023-04-05T10:28:19;45186.16;;;-143.84;74.38
6032;BME280;3044;43.232;27.972;2023-04-05T10:30:50;45195.69;;;-143.84;73.84
6032;BME280;3044;43.232;27.972;2023-04-05T10:33:29;45188.06;;;-143.84;73.92
6032;BME280;3044;43.232;27.972;2023-04-05T10:36:11;45180.47;;;-143.84;73.47
6032;BME280;3044;43.232;27.972;2023-04-05T10:38:55;45140.47;;;-143.84;75.27
6032;BME280;3044;43.232;27.972;2023-04-05T10:41:28;45148.09;;;-143.84;75.73
6032;BME280;3044;43.232;27.972;2023-04-05T10:43:56;45151.91;;;-143.84;74.05
6032;BME280;3044;43.232;27.972;2023-04-05T10:46:25;45209.03;;;-143.84;71.88
6032;BME280;3044;43.232;27.972;2023-04-05T10:49:01;45205.22;;;-143.84;71.88
6032;BME280;3044;43.232;27.972;2023-04-05T10:51:30;45144.28;;;-143.84;72.21
6032;BME280;3044;43.232;27.972;2023-04-05T10:53:59;45178.56;;;-143.84;72.22
6032;BME280;3044;43.232;27.972;2023-04-05T10:56:26;45174.75;;;-143.84;73.47
6032;BME280;3044;43.232;27.972;2023-04-05T10:58:54;45163.31;;;-143.84;74.76
6032;BME280;3044;43.232;27.972;2023-04-05T11:01:22;45189.97;;;-143.84;73.97
6032;BME280;3044;43.232;27.972;2023-04-05T11:03:50;45153.81;;;-143.84;73.91
6032;BME280;3044;43.232;27.972;2023-04-05T11:06:30;45170.94;;;-143.84;73.63
6032;BME280;3044;43.232;27.972;2023-04-05T11:09:00;45172.84;;;-143.84;73.19
6032;BME280;3044;43.232;27.972;2023-04-05T11:11:37;45167.13;;;-143.84;73.63
6032;BME280;3044;43.232;27.972;2023-04-05T11:14:18;45174.75;;;-143.84;73.49
6032;BME280;3044;43.232;27.972;2023-04-05T11:16:48;45203.31;;;-143.84;73.99
6032;BME280;3044;43.232;27.972;2023-04-05T11:19:18;45197.59;;;-143.84;73.84
6032;BME280;3044;43.232;27.972;2023-04-05T11:21:46;45146.19;;;-143.84;73.81
6032;BME280;3044;43.232;27.972;2023-04-05T11:24:14;45172.84;;;-143.84;73.16
6032;BME280;3044;43.232;27.972;2023-04-05T11:26:54;45172.84;;;-143.84;73.13
6032;BME280;3044;43.232;27.972;2023-04-05T11:29:46;45138.56;;;-143.84;74.11
6032;BME280;3044;43.232;27.972;2023-04-05T11:32:15;45212.84;;;-143.84;74.10
6032;BME280;3044;43.232;27.972;2023-04-05T11:34:43;45201.41;;;-143.84;72.33
6032;BME280;3044;43.232;27.972;2023-04-05T11:37:14;45216.63;;;-143.84;73.20
6032;BME280;3044;43.232;27.972;2023-04-05T11:39:41;45188.06;;;-143.84;73.57
6032;BME280;3044;43.232;27.972;2023-04-05T11:42:09;45195.69;;;-143.84;72.84
6032;BME280;3044;43.232;27.972;2023-04-05T11:44:46;45170.94;;;-143.84;72.53
6032;BME280;3044;43.232;27.972;2023-04-05T11:47:16;45169.03;;;-143.84;72.84
6032;BME280;3044;43.232;27.972;2023-04-05T11:49:48;45186.16;;;-143.84;72.69
6032;BME280;3044;43.232;27.972;2023-04-05T11:52:18;45205.22;;;-143.84;71.99
6032;BME280;3044;43.232;27.972;2023-04-05T11:54:46;45178.56;;;-143.84;72.51
6032;BME280;3044;43.232;27.972;2023-04-05T11:57:17;45212.84;;;-143.84;71.71
6032;BME280;3044;43.232;27.972;2023-04-05T11:59:44;45184.25;;;-143.84;72.86
6032;BME280;3044;43.232;27.972;2023-04-05T12:02:11;45169.03;;;-143.84;73.41
6032;BME280;3044;43.232;27.972;2023-04-05T12:04:39;45186.16;;;-143.84;72.69
6032;BME280;3044;43.232;27.972;2023-04-05T12:07:11;45176.66;;;-143.84;72.37
6032;BME280;3044;43.232;27.972;2023-04-05T12:09:58;45178.56;;;-143.84;72.91
6032;BME280;3044;43.232;27.972;2023-04-05T12:12:26;45144.28;;;-143.84;73.25
6032;BME280;3044;43.232;27.972;2023-04-05T12:14:59;45155.69;;;-143.84;73.40
6032;BME280;3044;43.232;27.972;2023-04-05T12:17:40;45153.81;;;-143.84;73.97
6032;BME280;3044;43.232;27.972;2023-04-05T12:20:09;45153.81;;;-143.84;74.64
6032;BME280;3044;43.232;27.972;2023-04-05T12:22:37;45136.66;;;-143.84;75.44
6032;BME280;3044;43.232;27.972;2023-04-05T12:25:07;45138.56;;;-143.84;76.30
6032;BME280;3044;43.232;27.972;2023-04-05T12:27:35;45127.13;;;-143.84;77.37
6032;BME280;3044;43.232;27.972;2023-04-05T12:30:10;45117.63;;;-143.84;77.48
6032;BME280;3044;43.232;27.972;2023-04-05T12:32:40;45094.78;;;-143.84;78.25
6032;BME280;3044;43.232;27.972;2023-04-05T12:35:11;45102.38;;;-143.84;77.60
6032;BME280;3044;43.232;27.972;2023-04-05T12:37:39;45125.22;;;-143.84;77.31
6032;BME280;3044;43.232;27.972;2023-04-05T12:40:22;45129.03;;;-143.84;76.60
6032;BME280;3044;43.232;27.972;2023-04-05T12:42:50;45132.84;;;-143.84;76.84
6032;BME280;3044;43.232;27.972;2023-04-05T12:45:18;45138.56;;;-143.84;77.15
6032;BME280;3044;43.232;27.972;2023-04-05T12:47:50;45106.19;;;-143.84;77.70
6032;BME280;3044;43.232;27.972;2023-04-05T12:50:19;45077.63;;;-143.84;78.18
6032;BME280;3044;43.232;27.972;2023-04-05T12:52:53;45104.28;;;-143.84;76.97
6032;BME280;3044;43.232;27.972;2023-04-05T12:55:20;45111.91;;;-143.84;75.81
6032;BME280;3044;43.232;27.972;2023-04-05T12:57:57;45142.38;;;-143.84;76.06
6032;BME280;3044;43.232;27.972;2023-04-05T13:00:26;45129.03;;;-143.84;76.20
6032;BME280;3044;43.232;27.972;2023-04-05T13:02:55;45169.03;;;-143.84;74.84